Time;durP1;ratioP1;P1;durP2;ratioP2;P2;SDS_P1;SDS_P2;PMS_P1;PMS_P2;Temp;Humidity;BMP_temperature;BMP_pressure;BME280_temperature;BME280_humidity;BME280_pressure;Samples;Min_cycle;Max_cycle;Signal;HPM_P1;HPM_P2
2022/01/25 00:09:19;;;;;;;58.42;32.08;;;4.20;99.90;;;;;;5042651;28;20604;-63
2022/01/25 00:28:25;;;;;;;61.28;32.35;;;4.10;99.90;;;;;;5047796;28;20472;-63
2022/01/25 00:31:09;;;;;;;59.75;28.70;;;4.10;99.90;;;;;;5046634;28;20040;-63
2022/01/25 00:33:37;;;;;;;59.08;33.08;;;4.10;99.90;;;;;;5036058;28;20056;-63
2022/01/25 00:36:05;;;;;;;57.78;32.83;;;4.10;99.90;;;;;;5046388;28;20044;-63
2022/01/25 00:38:31;;;;;;;57.65;32.30;;;4.10;99.90;;;;;;5046842;28;20045;-63
2022/01/25 00:40:57;;;;;;;55.50;33.10;;;4.10;99.90;;;;;;5047837;28;20124;-63
2022/01/25 00:43:25;;;;;;;59.72;33.35;;;4.10;99.90;;;;;;5035109;28;20124;-63
2022/01/25 00:45:53;;;;;;;57.78;31.88;;;4.10;99.90;;;;;;5047144;28;20045;-64
2022/01/25 00:48:32;;;;;;;58.25;31.65;;;4.10;99.90;;;;;;5046692;28;20468;-63
2022/01/25 00:51:15;;;;;;;74.70;32.22;;;4.10;99.90;;;;;;5047130;28;20073;-64
2022/01/25 00:56:20;;;;;;;57.58;32.55;;;4.10;99.90;;;;;;5046377;28;20045;-63
2022/01/25 00:58:46;;;;;;;63.70;33.17;;;4.10;99.90;;;;;;5046486;28;20043;-63
2022/01/25 01:01:11;;;;;;;57.20;31.45;;;4.10;99.90;;;;;;5041882;28;20044;-63
2022/01/25 01:03:37;;;;;;;64.32;33.28;;;4.10;99.90;;;;;;5045494;28;20037;-63
2022/01/25 01:06:05;;;;;;;55.05;31.88;;;4.10;99.90;;;;;;5047079;28;20063;-63
2022/01/25 01:08:31;;;;;;;59.17;33.55;;;4.10;99.90;;;;;;5046354;28;20047;-63
2022/01/25 01:10:59;;;;;;;60.63;33.03;;;4.10;99.90;;;;;;5046143;28;20045;-64
2022/01/25 01:37:58;;;;;;;67.10;34.25;;;4.00;99.90;;;;;;5047617;28;20149;-63
2022/01/25 01:41:07;;;;;;;59.55;32.55;;;4.00;99.90;;;;;;5045244;28;20056;-63
2022/01/25 01:45:35;;;;;;;63.78;33.47;;;4.00;99.90;;;;;;5046785;28;20436;-63
2022/01/25 01:48:07;;;;;;;60.20;33.63;;;4.00;99.90;;;;;;5045073;28;20059;-64
2022/01/25 01:50:36;;;;;;;60.13;32.28;;;4.00;99.90;;;;;;5047101;28;20053;-64
2022/01/25 01:53:04;;;;;;;62.80;33.20;;;4.00;99.90;;;;;;5045342;28;20521;-63
2022/01/25 01:55:32;;;;;;;60.70;33.00;;;4.00;99.90;;;;;;5044981;28;20045;-63
2022/01/25 01:57:59;;;;;;;60.58;33.15;;;4.10;99.90;;;;;;5036686;28;20049;-63
2022/01/25 02:00:31;;;;;;;61.88;32.88;;;4.00;99.90;;;;;;5041837;28;20040;-63
2022/01/25 02:02:57;;;;;;;61.72;33.20;;;4.00;99.90;;;;;;5046629;28;20063;-63
2022/01/25 02:05:23;;;;;;;62.60;33.38;;;4.00;99.90;;;;;;5044185;28;20399;-63
2022/01/25 02:07:49;;;;;;;68.22;33.85;;;4.00;99.90;;;;;;5025858;28;20048;-63
2022/01/25 02:10:15;;;;;;;64.47;32.92;;;4.00;99.90;;;;;;5037138;28;20053;-63
2022/01/25 02:12:43;;;;;;;62.25;34.08;;;4.00;99.90;;;;;;5034925;28;20466;-63
2022/01/25 02:15:09;;;;;;;62.53;33.72;;;4.00;99.90;;;;;;5046326;28;20067;-63
2022/01/25 02:23:21;;;;;;;63.50;33.90;;;4.00;99.90;;;;;;5043246;28;20045;-63
2022/01/25 02:25:49;;;;;;;54.85;31.13;;;4.00;99.90;;;;;;5046295;28;20041;-63
2022/01/25 02:28:16;;;;;;;64.20;33.83;;;4.00;99.90;;;;;;5044680;28;20679;-63
2022/01/25 02:30:42;;;;;;;65.10;34.42;;;3.90;99.90;;;;;;5027091;28;20041;-63
2022/01/25 02:33:08;;;;;;;56.70;33.13;;;4.00;99.90;;;;;;5046269;28;20045;-63
2022/01/25 02:35:35;;;;;;;65.03;33.38;;;4.00;99.90;;;;;;5045442;28;20399;-63
2022/01/25 02:38:01;;;;;;;61.10;34.92;;;4.00;99.90;;;;;;5016481;28;20049;-63
2022/01/25 02:40:27;;;;;;;63.33;34.90;;;4.00;99.90;;;;;;5034290;28;20055;-63
2022/01/25 02:42:53;;;;;;;70.03;35.60;;;4.00;99.90;;;;;;5046172;28;20495;-63
2022/01/25 02:45:21;;;;;;;59.80;32.30;;;4.00;99.90;;;;;;5044291;28;20033;-63
2022/01/25 02:50:31;;;;;;;68.72;36.00;;;4.00;99.90;;;;;;5045033;28;20048;-63
2022/01/25 02:52:57;;;;;;;62.75;34.75;;;4.00;99.90;;;;;;5027240;28;20049;-63
2022/01/25 02:55:22;;;;;;;67.93;35.25;;;4.00;99.90;;;;;;5044973;28;20041;-63
2022/01/25 02:57:49;;;;;;;62.40;34.45;;;4.00;99.90;;;;;;5044815;28;20043;-63
2022/01/25 03:00:16;;;;;;;63.95;35.40;;;4.00;99.90;;;;;;5045650;28;20443;-63
2022/01/25 03:02:42;;;;;;;63.60;34.13;;;4.00;99.90;;;;;;5046053;28;20450;-63
2022/01/25 03:05:08;;;;;;;62.13;34.90;;;4.00;99.90;;;;;;5038720;28;20038;-63
2022/01/25 03:07:36;;;;;;;68.85;37.80;;;4.00;99.90;;;;;;5034601;28;20038;-63
2022/01/25 03:10:04;;;;;;;68.35;35.10;;;4.00;99.90;;;;;;5035871;28;20033;-63
2022/01/25 03:12:54;;;;;;;64.28;35.60;;;4.00;99.90;;;;;;5044665;28;20049;-63
2022/01/25 03:17:50;;;;;;;65.47;35.30;;;4.00;99.90;;;;;;5048163;28;20049;-63
2022/01/25 03:20:23;;;;;;;62.08;35.63;;;4.00;99.90;;;;;;5049024;28;20476;-63
2022/01/25 03:25:23;;;;;;;61.17;34.30;;;4.00;99.90;;;;;;5048279;28;20056;-63
2022/01/25 03:27:48;;;;;;;58.90;34.63;;;4.00;99.90;;;;;;5048076;28;20049;-64
2022/01/25 03:30:14;;;;;;;59.92;34.20;;;3.90;99.90;;;;;;5043470;28;20056;-64
2022/01/25 03:32:40;;;;;;;63.47;33.85;;;4.00;99.90;;;;;;5042914;28;20060;-63
2022/01/25 03:35:06;;;;;;;69.32;34.95;;;4.00;99.90;;;;;;5060564;28;20146;-63
2022/01/25 03:37:32;;;;;;;62.67;32.85;;;4.00;99.90;;;;;;5045233;28;20048;-64
2022/01/25 03:39:57;;;;;;;62.28;34.20;;;4.00;99.90;;;;;;5040250;28;20037;-63
2022/01/25 03:42:24;;;;;;;60.10;34.72;;;4.00;99.90;;;;;;5046993;28;20056;-63
2022/01/25 03:44:50;;;;;;;64.25;35.35;;;3.90;99.90;;;;;;5031260;28;20045;-63
2022/01/25 03:47:20;;;;;;;62.92;34.80;;;4.00;99.90;;;;;;5046522;28;20399;-63
2022/01/25 03:52:16;;;;;;;60.50;34.20;;;4.00;99.90;;;;;;5045690;28;20465;-63
2022/01/25 03:54:42;;;;;;;63.22;35.70;;;4.00;99.90;;;;;;5048256;28;20115;-63
2022/01/25 03:57:08;;;;;;;65.75;33.00;;;4.00;99.90;;;;;;5041661;28;20125;-63
2022/01/25 03:59:33;;;;;;;63.58;34.97;;;4.00;99.90;;;;;;5038989;28;20499;-63
2022/01/25 04:01:59;;;;;;;59.05;33.63;;;4.00;99.90;;;;;;5044761;28;20044;-63
2022/01/25 04:04:26;;;;;;;63.53;35.58;;;4.00;99.90;;;;;;5047611;28;20040;-63
2022/01/25 04:06:53;;;;;;;60.35;33.63;;;4.00;99.90;;;;;;5044180;28;20049;-63
2022/01/25 04:09:20;;;;;;;61.92;35.95;;;4.00;99.90;;;;;;5031248;28;20056;-63
2022/01/25 04:11:45;;;;;;;65.20;35.33;;;4.00;99.90;;;;;;5046895;28;20056;-63
2022/01/25 04:14:11;;;;;;;66.70;36.17;;;4.00;99.90;;;;;;5046907;28;20960;-63
2022/01/25 04:16:59;;;;;;;65.80;34.38;;;4.00;99.90;;;;;;5047528;28;20049;-63
2022/01/25 04:19:34;;;;;;;69.18;35.55;;;4.00;99.90;;;;;;5046634;28;20041;-63
2022/01/25 04:25:02;;;;;;;66.40;36.53;;;4.00;99.90;;;;;;5046969;28;20131;-63
2022/01/25 04:27:29;;;;;;;64.55;36.30;;;4.00;99.90;;;;;;5046224;28;20056;-64
2022/01/25 04:29:55;;;;;;;63.75;34.88;;;4.00;99.90;;;;;;5047240;28;20048;-63
2022/01/25 04:32:33;;;;;;;68.07;35.55;;;4.00;99.90;;;;;;5038589;28;20057;-63
2022/01/25 04:35:14;;;;;;;62.95;34.75;;;4.00;99.90;;;;;;5048073;28;20596;-63
2022/01/25 04:48:57;;;;;;;63.28;36.17;;;4.00;99.90;;;;;;5045956;28;20052;-64
2022/01/25 04:51:39;;;;;;;65.70;35.03;;;3.90;99.90;;;;;;5046456;28;20111;-63
2022/01/25 04:56:46;;;;;;;69.95;37.35;;;4.00;99.90;;;;;;5043179;28;20048;-63
2022/01/25 05:01:39;;;;;;;62.83;35.70;;;4.00;99.90;;;;;;5044758;28;20052;-64
2022/01/25 05:04:10;;;;;;;60.92;34.85;;;4.00;99.90;;;;;;5047341;28;20533;-63
2022/01/25 05:06:36;;;;;;;67.65;37.45;;;4.00;99.90;;;;;;5047456;28;20060;-63
2022/01/25 05:09:11;;;;;;;66.47;38.33;;;4.00;99.90;;;;;;5046539;28;20037;-63
2022/01/25 05:11:43;;;;;;;65.13;36.42;;;4.00;99.90;;;;;;5046892;28;20041;-63
2022/01/25 05:14:15;;;;;;;67.78;37.35;;;4.00;99.90;;;;;;5046373;28;20507;-64
2022/01/25 05:16:54;;;;;;;64.43;36.33;;;4.00;99.90;;;;;;5047834;28;20099;-63
2022/01/25 05:22:03;;;;;;;60.58;35.47;;;4.00;99.90;;;;;;5044001;28;20084;-63
2022/01/25 05:22:26;;;;;;;66.00;35.00;;;4.00;99.90;;;;;;5047650;28;20414;-63
2022/01/25 05:24:53;;;;;;;69.00;37.17;;;4.00;99.90;;;;;;5045760;28;20120;-63
2022/01/25 05:27:27;;;;;;;70.28;37.05;;;4.00;99.90;;;;;;5044987;28;20055;-63
2022/01/25 05:29:53;;;;;;;69.47;36.38;;;4.00;99.90;;;;;;5046580;28;20040;-63
2022/01/25 05:32:19;;;;;;;66.30;36.42;;;4.00;99.90;;;;;;5045636;28;20419;-63
2022/01/25 05:34:47;;;;;;;67.18;34.22;;;4.00;99.90;;;;;;5046290;28;20076;-64
2022/01/25 05:37:13;;;;;;;66.63;34.63;;;4.00;99.90;;;;;;5043678;28;20108;-63
2022/01/25 05:39:39;;;;;;;68.47;36.90;;;4.00;99.90;;;;;;5045403;28;20044;-63
2022/01/25 05:42:29;;;;;;;66.38;36.47;;;4.00;99.90;;;;;;5044564;28;20428;-63
2022/01/25 05:44:59;;;;;;;63.45;37.05;;;4.00;99.90;;;;;;5045722;28;20133;-63
2022/01/25 05:47:29;;;;;;;;;;;4.00;99.90;;;;;;5046999;28;20053;-64
2022/01/25 05:49:57;;;;;;;64.35;34.88;;;4.00;99.90;;;;;;5044616;28;19921;-64
2022/01/25 05:52:23;;;;;;;62.08;36.13;;;4.00;99.90;;;;;;5018147;28;20056;-64
2022/01/25 05:54:48;;;;;;;68.85;35.63;;;4.00;99.90;;;;;;5044250;28;20041;-63
2022/01/25 05:57:15;;;;;;;67.53;35.60;;;4.00;99.90;;;;;;5046744;28;20044;-63
2022/01/25 05:59:41;;;;;;;63.78;35.67;;;4.00;99.90;;;;;;5032544;28;20053;-63
2022/01/25 06:02:07;;;;;;;65.25;35.80;;;4.00;99.90;;;;;;5040875;28;20055;-63
2022/01/25 06:04:33;;;;;;;62.70;35.33;;;4.00;99.90;;;;;;5045126;28;20156;-63
2022/01/25 06:06:59;;;;;;;62.85;35.00;;;4.00;99.90;;;;;;5045586;28;20109;-64
2022/01/25 06:09:25;;;;;;;69.30;35.58;;;4.00;99.90;;;;;;5046363;28;20056;-63
2022/01/25 06:11:52;;;;;;;65.38;36.28;;;4.00;99.90;;;;;;5035908;28;20049;-63
2022/01/25 06:14:19;;;;;;;59.30;35.35;;;4.00;99.90;;;;;;5042307;28;20479;-63
2022/01/25 06:16:44;;;;;;;67.10;36.83;;;4.00;99.90;;;;;;5044875;28;20085;-63
2022/01/25 06:19:10;;;;;;;67.78;37.38;;;4.00;99.90;;;;;;5028036;28;20088;-63
2022/01/25 06:21:36;;;;;;;65.22;35.35;;;4.00;99.90;;;;;;5045136;28;20136;-63
2022/01/25 06:24:02;;;;;;;62.90;35.80;;;4.00;99.90;;;;;;5038859;28;20047;-63
2022/01/25 06:26:27;;;;;;;66.60;35.83;;;4.00;99.90;;;;;;5040605;28;20405;-63
2022/01/25 06:28:53;;;;;;;67.28;37.47;;;4.00;99.90;;;;;;5036669;28;20095;-63
2022/01/25 06:31:19;;;;;;;62.03;35.42;;;4.00;99.90;;;;;;5044909;28;20037;-63
2022/01/25 06:33:46;;;;;;;63.13;34.90;;;4.00;99.90;;;;;;5039987;28;20056;-63
2022/01/25 06:36:12;;;;;;;62.42;36.58;;;4.00;99.90;;;;;;5045600;28;20127;-63
2022/01/25 06:38:39;;;;;;;67.88;36.42;;;4.00;99.90;;;;;;5037113;28;20500;-63
2022/01/25 06:41:05;;;;;;;63.45;34.20;;;4.00;99.90;;;;;;5037608;28;20123;-63
2022/01/25 06:43:31;;;;;;;63.97;35.78;;;4.00;99.90;;;;;;5044648;28;20045;-63
2022/01/25 06:46:01;;;;;;;61.78;35.47;;;4.00;99.90;;;;;;5044966;28;20044;-63
2022/01/25 06:48:27;;;;;;;63.85;35.85;;;3.90;99.90;;;;;;5045810;28;20057;-63
2022/01/25 06:50:53;;;;;;;62.60;36.13;;;4.00;99.90;;;;;;5046664;28;20502;-63
2022/01/25 06:53:20;;;;;;;65.03;35.28;;;4.00;99.90;;;;;;5048600;28;20091;-64
2022/01/25 06:55:45;;;;;;;66.05;36.92;;;4.00;99.90;;;;;;5050255;28;20076;-63
2022/01/25 06:58:11;;;;;;;72.07;37.28;;;3.90;99.90;;;;;;5047533;28;20084;-63
2022/01/25 07:00:37;;;;;;;66.85;36.75;;;4.00;99.90;;;;;;5048330;28;20045;-63
2022/01/25 07:03:04;;;;;;;61.70;34.47;;;4.00;99.90;;;;;;5046983;28;20049;-63
2022/01/25 07:05:30;;;;;;;62.30;36.70;;;3.90;99.90;;;;;;5047846;28;20045;-64
2022/01/25 07:07:56;;;;;;;69.20;37.05;;;4.00;99.90;;;;;;5048765;28;20073;-63
2022/01/25 07:10:22;;;;;;;61.78;36.75;;;4.00;99.90;;;;;;5048131;28;20506;-63
2022/01/25 07:12:48;;;;;;;59.00;34.40;;;3.90;99.90;;;;;;5049197;28;20077;-64
2022/01/25 07:15:14;;;;;;;65.22;35.78;;;4.00;99.90;;;;;;5047329;28;20079;-63
2022/01/25 07:17:41;;;;;;;61.53;34.85;;;4.00;99.90;;;;;;5047835;28;20049;-63
2022/01/25 07:20:08;;;;;;;59.58;34.45;;;4.00;99.90;;;;;;5047152;28;20045;-63
2022/01/25 07:22:35;;;;;;;65.45;35.72;;;3.90;99.90;;;;;;5035359;28;20037;-63
2022/01/25 07:25:03;;;;;;;67.10;35.78;;;4.00;99.90;;;;;;5046439;28;20055;-63
2022/01/25 07:27:29;;;;;;;65.18;35.03;;;3.90;99.90;;;;;;5035335;28;20052;-63
2022/01/25 07:29:55;;;;;;;70.43;36.70;;;3.90;99.90;;;;;;5033443;28;20041;-63
2022/01/25 07:32:21;;;;;;;64.35;36.53;;;4.00;99.90;;;;;;5036403;28;20057;-63
2022/01/25 07:34:46;;;;;;;69.70;36.38;;;4.00;99.90;;;;;;5047442;28;20040;-63
2022/01/25 07:37:12;;;;;;;66.90;35.47;;;4.00;99.90;;;;;;5037859;28;20111;-63
2022/01/25 07:39:38;;;;;;;69.10;33.95;;;4.00;99.90;;;;;;5047809;28;20080;-63
2022/01/25 07:42:04;;;;;;;65.60;36.13;;;4.00;99.90;;;;;;5047818;28;20071;-63
2022/01/25 07:44:35;;;;;;;69.43;36.05;;;4.00;99.90;;;;;;5033421;28;20361;-63
2022/01/25 07:47:01;;;;;;;65.97;35.35;;;4.00;99.90;;;;;;5042744;28;20048;-63
2022/01/25 07:49:28;;;;;;;60.95;35.15;;;4.00;99.90;;;;;;5048576;28;20122;-63
2022/01/25 07:51:54;;;;;;;65.07;35.83;;;4.00;99.90;;;;;;5047419;28;20068;-63
2022/01/25 07:54:20;;;;;;;64.43;36.10;;;4.00;99.90;;;;;;5044948;28;20107;-63
2022/01/25 07:56:46;;;;;;;71.60;37.33;;;4.00;99.90;;;;;;5040466;28;20306;-64
2022/01/25 07:59:12;;;;;;;67.82;36.13;;;4.00;99.90;;;;;;5035134;28;20041;-63
2022/01/25 08:01:38;;;;;;;72.32;37.90;;;4.00;99.90;;;;;;5044344;28;20037;-63
2022/01/25 08:04:04;;;;;;;74.72;36.70;;;4.00;99.90;;;;;;5046256;28;20498;-63
2022/01/25 08:06:30;;;;;;;72.97;37.67;;;4.00;99.90;;;;;;5045916;28;20388;-63
2022/01/25 08:08:58;;;;;;;68.25;37.30;;;4.00;99.90;;;;;;5031103;28;20128;-63
2022/01/25 08:11:24;;;;;;;62.00;35.63;;;4.00;99.90;;;;;;5047606;28;20045;-63
2022/01/25 08:13:50;;;;;;;68.88;38.60;;;4.00;99.90;;;;;;5038031;28;20398;-63
2022/01/25 08:16:17;;;;;;;63.10;36.45;;;4.00;99.90;;;;;;5030396;28;20053;-63
2022/01/25 08:18:43;;;;;;;68.15;36.25;;;4.00;99.90;;;;;;5032621;28;20041;-63
2022/01/25 08:21:09;;;;;;;71.63;36.30;;;4.00;99.90;;;;;;5033461;28;20080;-63
2022/01/25 08:23:35;;;;;;;65.75;37.80;;;4.00;99.90;;;;;;5034243;28;20044;-63
2022/01/25 08:26:01;;;;;;;73.82;37.88;;;4.00;99.90;;;;;;5034270;28;20037;-63
2022/01/25 08:28:27;;;;;;;61.97;32.97;;;4.00;99.90;;;;;;5030507;28;20045;-63
2022/01/25 08:30:53;;;;;;;71.88;37.75;;;4.00;99.90;;;;;;5035285;28;20090;-63
2022/01/25 08:33:19;;;;;;;66.80;35.55;;;4.00;99.90;;;;;;5034488;28;20025;-63
2022/01/25 08:35:45;;;;;;;70.75;36.63;;;4.10;99.90;;;;;;5040243;28;20136;-63
2022/01/25 08:38:10;;;;;;;75.13;38.13;;;4.10;99.90;;;;;;5042598;28;20033;-63
2022/01/25 08:40:36;;;;;;;75.20;37.55;;;4.00;99.90;;;;;;5031823;28;20495;-63
2022/01/25 08:43:02;;;;;;;67.95;38.22;;;4.10;99.90;;;;;;5038304;28;20047;-63
2022/01/25 08:45:29;;;;;;;70.50;37.58;;;4.10;99.90;;;;;;5035632;28;20500;-63
2022/01/25 08:47:54;;;;;;;70.05;37.63;;;4.10;99.90;;;;;;5042291;28;20049;-63
2022/01/25 08:50:20;;;;;;;75.18;36.92;;;4.10;99.90;;;;;;5034393;28;20501;-64
2022/01/25 08:52:46;;;;;;;70.88;36.65;;;4.10;99.90;;;;;;5009740;28;20041;-64
2022/01/25 08:55:12;;;;;;;67.75;37.60;;;4.10;99.90;;;;;;5043352;28;20053;-64
2022/01/25 08:57:38;;;;;;;71.93;38.13;;;4.10;99.90;;;;;;5047727;28;20045;-64
2022/01/25 09:00:07;;;;;;;67.43;36.28;;;4.10;99.90;;;;;;5035835;28;20045;-64
2022/01/25 09:02:32;;;;;;;68.80;38.35;;;4.10;99.90;;;;;;5033226;28;20041;-64
2022/01/25 09:04:58;;;;;;;73.55;36.08;;;4.10;99.90;;;;;;5042763;28;20120;-64
2022/01/25 09:07:24;;;;;;;69.72;36.58;;;4.10;99.90;;;;;;5028570;28;20045;-64
2022/01/25 09:09:49;;;;;;;69.85;36.17;;;4.20;99.90;;;;;;5038946;28;20246;-63
2022/01/25 09:12:15;;;;;;;70.75;36.22;;;4.20;99.90;;;;;;5027191;28;20480;-64
2022/01/25 09:14:41;;;;;;;82.78;39.97;;;4.20;99.90;;;;;;5038715;28;20091;-64
2022/01/25 09:17:09;;;;;;;72.97;38.05;;;4.20;99.90;;;;;;5031681;28;20063;-64
2022/01/25 09:19:38;;;;;;;70.20;36.10;;;4.20;99.90;;;;;;5044905;28;20041;-63
2022/01/25 09:22:06;;;;;;;75.68;35.58;;;4.20;99.90;;;;;;5044599;28;20044;-64
2022/01/25 09:24:32;;;;;;;72.93;36.85;;;4.20;99.90;;;;;;5033495;28;20435;-64
2022/01/25 09:26:58;;;;;;;71.00;36.92;;;4.30;99.90;;;;;;5041135;28;20037;-64
2022/01/25 09:29:24;;;;;;;75.32;36.78;;;4.20;99.90;;;;;;5060727;28;20045;-63
2022/01/25 09:31:49;;;;;;;72.03;36.92;;;4.30;99.90;;;;;;5038215;28;20041;-64
2022/01/25 09:34:15;;;;;;;71.43;35.97;;;4.30;99.90;;;;;;5044133;28;20037;-63
2022/01/25 09:36:41;;;;;;;72.82;35.47;;;4.30;99.90;;;;;;5044791;28;20049;-64
2022/01/25 09:39:07;;;;;;;70.93;35.80;;;4.30;99.90;;;;;;5043885;28;20092;-64
2022/01/25 09:41:34;;;;;;;71.78;35.20;;;4.30;99.90;;;;;;5043937;28;20080;-64
2022/01/25 09:44:02;;;;;;;62.40;34.80;;;4.30;99.90;;;;;;5034340;28;20045;-63
2022/01/25 09:46:28;;;;;;;66.47;34.92;;;4.30;99.90;;;;;;5028684;28;20044;-63
2022/01/25 09:48:53;;;;;;;70.97;38.83;;;4.30;99.90;;;;;;5026673;28;20103;-64
2022/01/25 09:51:20;;;;;;;69.63;34.90;;;4.40;99.90;;;;;;5037964;28;20041;-63
2022/01/25 09:53:46;;;;;;;75.82;37.88;;;4.40;99.90;;;;;;5043294;28;20041;-64
2022/01/25 09:56:12;;;;;;;68.20;35.88;;;4.30;99.90;;;;;;5044190;28;20592;-64
2022/01/25 09:58:38;;;;;;;66.45;37.75;;;4.40;99.90;;;;;;5030785;28;20041;-64
2022/01/25 10:01:05;;;;;;;72.75;38.80;;;4.40;99.90;;;;;;5040578;28;20051;-64
2022/01/25 10:03:36;;;;;;;66.78;37.25;;;4.40;99.90;;;;;;5040160;28;20059;-64
2022/01/25 10:06:04;;;;;;;70.75;37.03;;;4.40;99.90;;;;;;5041741;28;20068;-63
2022/01/25 10:08:32;;;;;;;68.72;35.72;;;4.40;99.90;;;;;;5031998;28;20124;-64
2022/01/25 10:11:05;;;;;;;74.75;36.03;;;4.40;99.90;;;;;;5042978;28;20053;-64
2022/01/25 10:13:48;;;;;;;64.47;36.15;;;4.40;99.90;;;;;;5042381;28;20120;-64
2022/01/25 10:16:33;;;;;;;72.80;34.70;;;4.40;99.90;;;;;;5032573;28;20045;-64
2022/01/25 10:19:07;;;;;;;76.57;37.45;;;4.40;99.90;;;;;;5043808;28;20402;-64
2022/01/25 10:21:36;;;;;;;73.05;37.78;;;4.40;99.90;;;;;;5038723;28;20041;-64
2022/01/25 10:24:10;;;;;;;75.32;37.05;;;4.50;99.90;;;;;;5032688;28;20379;-64
2022/01/25 10:26:42;;;;;;;69.30;37.50;;;4.40;99.90;;;;;;5045430;28;20047;-64
2022/01/25 10:29:18;;;;;;;77.65;38.83;;;4.40;99.90;;;;;;5036929;28;20053;-64
2022/01/25 10:31:47;;;;;;;68.32;35.25;;;4.40;99.90;;;;;;5045534;28;20049;-64
2022/01/25 10:34:17;;;;;;;66.85;36.22;;;4.40;99.90;;;;;;5062044;28;20137;-64
2022/01/25 10:36:48;;;;;;;71.13;35.30;;;4.40;99.90;;;;;;5034260;28;20055;-64
2022/01/25 10:39:22;;;;;;;67.22;34.30;;;4.40;99.90;;;;;;5045651;28;20049;-64
2022/01/25 10:41:48;;;;;;;59.58;26.65;;;4.40;99.90;;;;;;5048115;28;20178;-64
2022/01/25 10:44:14;;;;;;;75.35;39.20;;;4.40;99.90;;;;;;5045338;28;20124;-64
2022/01/25 10:46:40;;;;;;;76.43;38.28;;;4.40;99.90;;;;;;5041877;28;20160;-64
2022/01/25 10:49:10;;;;;;;65.63;30.45;;;4.40;99.90;;;;;;5041419;28;20166;-64
2022/01/25 10:51:49;;;;;;;79.20;34.40;;;4.40;99.90;;;;;;5034843;28;20041;-64
2022/01/25 10:54:15;;;;;;;74.45;35.75;;;4.40;99.90;;;;;;5040074;28;20071;-64
2022/01/25 10:56:53;;;;;;;59.78;28.88;;;4.40;99.90;;;;;;5032310;28;20037;-64
2022/01/25 10:59:24;;;;;;;54.78;23.63;;;4.40;99.90;;;;;;5030331;28;20110;-64
2022/01/25 11:01:53;;;;;;;67.78;34.33;;;4.40;99.90;;;;;;5035912;28;20080;-64
2022/01/25 11:04:23;;;;;;;79.47;39.13;;;4.40;99.90;;;;;;5037291;28;20120;-64
2022/01/25 11:06:59;;;;;;;72.97;36.83;;;4.40;99.90;;;;;;5033616;28;20033;-64
2022/01/25 11:09:27;;;;;;;56.03;28.08;;;4.40;99.90;;;;;;5034915;28;20110;-64
2022/01/25 11:11:57;;;;;;;61.10;28.75;;;4.40;99.90;;;;;;5048230;28;20052;-64
2022/01/25 11:17:08;;;;;;;70.68;33.17;;;4.40;99.90;;;;;;5048724;28;20568;-64
2022/01/25 11:19:33;;;;;;;71.63;33.72;;;4.40;99.90;;;;;;5046807;28;20037;-64
2022/01/25 11:21:59;;;;;;;78.13;38.40;;;4.40;99.90;;;;;;5045616;28;20099;-64
2022/01/25 11:24:29;;;;;;;72.15;37.78;;;4.40;99.90;;;;;;5047315;28;20085;-64
2022/01/25 11:26:57;;;;;;;80.20;39.38;;;4.40;99.90;;;;;;5042706;28;20087;-64
2022/01/25 11:29:24;;;;;;;87.45;39.00;;;4.40;99.90;;;;;;5042638;28;20041;-64
2022/01/25 11:31:57;;;;;;;76.90;35.60;;;4.40;99.90;;;;;;5039217;28;20073;-64
2022/01/25 11:34:26;;;;;;;81.45;37.63;;;4.40;99.90;;;;;;5032286;28;20483;-64
2022/01/25 11:36:55;;;;;;;80.47;38.53;;;4.50;99.90;;;;;;5035727;28;20049;-64
2022/01/25 11:39:27;;;;;;;81.25;38.38;;;4.50;99.90;;;;;;5045246;28;20063;-64
2022/01/25 11:42:03;;;;;;;84.15;38.80;;;4.50;99.90;;;;;;5048356;28;20379;-64
2022/01/25 11:44:31;;;;;;;81.55;39.97;;;4.50;99.90;;;;;;5035779;28;20129;-64
2022/01/25 11:47:18;;;;;;;75.82;32.45;;;4.50;99.90;;;;;;5030044;28;20057;-64
2022/01/25 11:49:52;;;;;;;72.95;35.38;;;4.50;99.90;;;;;;5033612;28;20510;-64
2022/01/25 11:52:19;;;;;;;72.43;32.40;;;4.50;99.90;;;;;;5029377;28;20126;-64
2022/01/25 11:54:45;;;;;;;72.47;34.22;;;4.50;99.90;;;;;;5032472;28;20128;-64
2022/01/25 11:57:26;;;;;;;69.13;32.72;;;4.50;99.90;;;;;;5035686;28;20549;-64
2022/01/25 11:59:53;;;;;;;;;;;4.50;99.90;;;;;;5036280;28;20041;-63
2022/01/25 12:02:49;;;;;;;70.53;36.55;;;4.50;99.90;;;;;;5032481;28;19927;-63
2022/01/25 12:05:24;;;;;;;79.53;38.13;;;4.50;99.90;;;;;;5029984;28;20411;-64
2022/01/25 12:08:13;;;;;;;75.55;38.03;;;4.50;99.90;;;;;;5030388;28;20060;-63
2022/01/25 12:10:45;;;;;;;93.88;38.85;;;4.50;99.90;;;;;;5042479;28;20558;-64
2022/01/25 12:13:10;;;;;;;78.30;38.40;;;4.50;99.90;;;;;;5047425;28;20052;-63
2022/01/25 12:15:36;;;;;;;81.53;39.75;;;4.50;99.90;;;;;;5033361;28;20053;-63
2022/01/25 12:18:02;;;;;;;89.68;40.30;;;4.60;99.90;;;;;;5046588;28;20098;-64
2022/01/25 12:20:28;;;;;;;84.85;41.08;;;4.60;99.90;;;;;;5047883;28;20045;-63
2022/01/25 12:23:11;;;;;;;78.15;37.80;;;4.60;99.90;;;;;;5044689;28;20040;-64
2022/01/25 12:26:04;;;;;;;78.68;38.30;;;4.60;99.90;;;;;;5048211;28;20131;-65
2022/01/25 12:28:34;;;;;;;84.35;38.28;;;4.60;99.90;;;;;;5036947;28;20053;-66
2022/01/25 12:31:01;;;;;;;80.18;40.08;;;4.60;99.90;;;;;;5045783;28;20049;-63
2022/01/25 12:33:28;;;;;;;84.80;40.85;;;4.60;99.90;;;;;;5035949;28;20122;-63
2022/01/25 12:35:59;;;;;;;82.07;39.08;;;4.70;99.90;;;;;;5044226;28;20076;-63
2022/01/25 12:38:31;;;;;;;100.43;41.55;;;4.60;99.90;;;;;;5030317;28;20118;-63
2022/01/25 12:41:01;;;;;;;77.55;39.58;;;4.60;99.90;;;;;;5029926;28;20052;-63
2022/01/25 12:43:35;;;;;;;91.88;41.38;;;4.60;99.90;;;;;;5035669;28;20099;-63
2022/01/25 12:46:18;;;;;;;88.60;41.10;;;4.70;99.90;;;;;;5038451;28;20044;-64
2022/01/25 12:49:16;;;;;;;80.30;40.60;;;4.70;99.90;;;;;;5037596;28;20534;-64
2022/01/25 12:51:44;;;;;;;79.18;37.67;;;4.70;99.90;;;;;;5032934;28;20507;-64
2022/01/25 12:54:12;;;;;;;78.22;38.75;;;4.70;99.90;;;;;;5032409;28;20073;-63
2022/01/25 12:56:46;;;;;;;74.18;35.63;;;4.70;99.90;;;;;;5033843;28;20040;-63
2022/01/25 12:59:18;;;;;;;70.75;36.65;;;4.70;99.90;;;;;;5033179;28;20045;-63
2022/01/25 13:01:44;;;;;;;83.90;38.97;;;4.60;99.90;;;;;;5031964;28;20057;-64
2022/01/25 13:04:11;;;;;;;81.97;38.28;;;4.60;99.90;;;;;;5029901;28;20041;-63
2022/01/25 13:06:40;;;;;;;77.50;36.85;;;4.60;99.90;;;;;;5036510;28;20053;-63
2022/01/25 13:17:07;;;;;;;76.90;35.80;;;4.60;99.90;;;;;;5047136;28;20106;-63
2022/01/25 13:19:39;;;;;;;85.30;36.13;;;4.60;99.90;;;;;;5045018;28;20053;-64
2022/01/25 13:22:11;;;;;;;76.60;35.60;;;4.60;99.90;;;;;;5042688;28;20048;-64
2022/01/25 13:24:46;;;;;;;77.97;37.58;;;4.60;99.90;;;;;;5030530;28;20076;-64
2022/01/25 13:27:15;;;;;;;82.90;38.08;;;4.60;99.90;;;;;;5044030;28;20041;-63
2022/01/25 13:32:50;;;;;;;82.00;37.80;;;4.60;99.90;;;;;;5045869;28;20049;-63
2022/01/25 13:38:21;;;;;;;81.47;37.00;;;4.60;99.90;;;;;;5027203;28;20488;-63
2022/01/25 13:46:36;;;;;;;73.45;34.92;;;4.60;99.90;;;;;;5033343;28;20057;-64
2022/01/25 13:49:02;;;;;;;76.57;35.15;;;4.60;99.90;;;;;;5023430;28;20054;-64
2022/01/25 13:51:30;;;;;;;71.63;35.30;;;4.50;99.90;;;;;;5036050;28;20044;-63
2022/01/25 13:53:59;;;;;;;86.85;38.97;;;4.50;99.90;;;;;;5043230;28;20063;-63
2022/01/25 13:56:28;;;;;;;83.68;37.05;;;4.50;99.90;;;;;;5030964;28;20135;-63
2022/01/25 13:58:55;;;;;;;83.85;38.85;;;4.50;99.90;;;;;;5026884;28;20472;-63
2022/01/25 14:01:23;;;;;;;76.05;35.00;;;4.50;99.90;;;;;;5029256;28;20048;-63
2022/01/25 14:03:57;;;;;;;78.78;36.63;;;4.50;99.90;;;;;;5041329;28;20041;-63
2022/01/25 14:06:26;;;;;;;86.47;39.20;;;4.50;99.90;;;;;;5023925;28;20506;-63
2022/01/25 14:08:59;;;;;;;71.65;37.17;;;4.50;99.90;;;;;;5027687;28;20399;-63
2022/01/25 14:11:51;;;;;;;82.75;37.17;;;4.50;99.90;;;;;;5045731;28;20041;-63
2022/01/25 14:25:31;;;;;;;82.13;40.50;;;4.40;99.90;;;;;;5043128;28;20053;-63
2022/01/25 14:28:00;;;;;;;70.63;32.30;;;4.40;99.90;;;;;;5039130;28;20171;-63
2022/01/25 14:30:30;;;;;;;69.60;33.90;;;4.40;99.90;;;;;;5042462;28;20045;-63
2022/01/25 14:33:06;;;;;;;;;;;4.50;99.90;;;;;;5044636;28;20047;-63
2022/01/25 14:35:32;;;;;;;78.82;35.45;;;4.40;99.90;;;;;;5040298;28;20362;-64
2022/01/25 14:38:00;;;;;;;79.93;37.60;;;4.40;99.90;;;;;;5045124;28;20029;-65
2022/01/25 14:40:27;;;;;;;81.22;39.78;;;4.50;99.90;;;;;;5048097;28;20076;-64
2022/01/25 14:42:54;;;;;;;79.95;36.70;;;4.40;99.90;;;;;;5032039;28;20045;-63
2022/01/25 14:45:22;;;;;;;94.13;40.20;;;4.40;99.90;;;;;;5026346;28;20048;-64
2022/01/25 14:47:50;;;;;;;71.45;35.70;;;4.40;99.90;;;;;;5045041;28;20052;-64
2022/01/25 14:50:32;;;;;;;85.97;38.95;;;4.40;99.90;;;;;;5042787;28;20566;-63